sensor_id;sensor_type;location;lat;lon;timestamp;temperature;humidity
8172;DHT22;4127;47.908;10.850;2023-07-31T09:01:50;19.50;99.90
8172;DHT22;4127;47.908;10.850;2023-07-31T09:04:18;19.70;99.90
8172;DHT22;4127;47.908;10.850;2023-07-31T09:06:46;19.70;99.90
8172;DHT22;4127;47.908;10.850;2023-07-31T09:09:15;20.10;99.90
8172;DHT22;4127;47.908;10.850;2023-07-31T09:11:42;20.50;99.90
8172;DHT22;4127;47.908;10.850;2023-07-31T09:14:10;20.40;99.90
8172;DHT22;4127;47.908;10.850;2023-07-31T09:16:54;20.40;99.60
8172;DHT22;4127;47.908;10.850;2023-07-31T09:19:33;20.30;99.90
8172;DHT22;4127;47.908;10.850;2023-07-31T09:22:00;20.20;99.70
8172;DHT22;4127;47.908;10.850;2023-07-31T09:24:29;20.60;99.40
8172;DHT22;4127;47.908;10.850;2023-07-31T09:26:58;20.90;99.20
8172;DHT22;4127;47.908;10.850;2023-07-31T09:29:26;21.10;98.30
8172;DHT22;4127;47.908;10.850;2023-07-31T09:31:54;21.20;98.00
8172;DHT22;4127;47.908;10.850;2023-07-31T09:34:30;21.40;97.80
8172;DHT22;4127;47.908;10.850;2023-07-31T09:37:03;21.30;97.60
8172;DHT22;4127;47.908;10.850;2023-07-31T09:39:31;21.50;96.70
8172;DHT22;4127;47.908;10.850;2023-07-31T09:41:58;21.70;97.70
8172;DHT22;4127;47.908;10.850;2023-07-31T09:44:38;21.40;96.60
8172;DHT22;4127;47.908;10.850;2023-07-31T09:47:06;21.30;98.10
8172;DHT22;4127;47.908;10.850;2023-07-31T09:49:33;21.50;97.10
8172;DHT22;4127;47.908;10.850;2023-07-31T09:52:00;21.20;96.70
8172;DHT22;4127;47.908;10.850;2023-07-31T09:54:27;21.00;96.70
8172;DHT22;4127;47.908;10.850;2023-07-31T09:56:54;20.90;96.80
8172;DHT22;4127;47.908;10.850;2023-07-31T09:59:23;20.80;96.20
8172;DHT22;4127;47.908;10.850;2023-07-31T10:01:50;21.00;97.80
8172;DHT22;4127;47.908;10.850;2023-07-31T10:04:20;21.60;96.40
8172;DHT22;4127;47.908;10.850;2023-07-31T10:06:53;21.80;95.50
8172;DHT22;4127;47.908;10.850;2023-07-31T10:09:21;21.50;96.10
8172;DHT22;4127;47.908;10.850;2023-07-31T10:11:55;21.30;96.40
8172;DHT22;4127;47.908;10.850;2023-07-31T10:14:26;21.10;96.30
8172;DHT22;4127;47.908;10.850;2023-07-31T10:16:54;21.30;96.10
8172;DHT22;4127;47.908;10.850;2023-07-31T10:19:21;21.60;95.00
8172;DHT22;4127;47.908;10.850;2023-07-31T10:21:49;21.70;94.90
8172;DHT22;4127;47.908;10.850;2023-07-31T10:24:17;21.50;95.20
8172;DHT22;4127;47.908;10.850;2023-07-31T10:26:45;21.30;94.60
8172;DHT22;4127;47.908;10.850;2023-07-31T10:29:15;21.10;95.10
8172;DHT22;4127;47.908;10.850;2023-07-31T10:31:43;21.30;95.40
8172;DHT22;4127;47.908;10.850;2023-07-31T10:34:11;21.50;95.50
8172;DHT22;4127;47.908;10.850;2023-07-31T10:36:38;21.50;94.30
8172;DHT22;4127;47.908;10.850;2023-07-31T10:39:35;21.30;94.80
8172;DHT22;4127;47.908;10.850;2023-07-31T10:42:13;21.20;94.20
8172;DHT22;4127;47.908;10.850;2023-07-31T10:44:46;21.50;94.00
8172;DHT22;4127;47.908;10.850;2023-07-31T10:47:17;21.10;94.20
8172;DHT22;4127;47.908;10.850;2023-07-31T10:49:45;21.00;94.80
8172;DHT22;4127;47.908;10.850;2023-07-31T10:52:13;21.20;94.70
8172;DHT22;4127;47.908;10.850;2023-07-31T10:54:40;21.50;93.90
8172;DHT22;4127;47.908;10.850;2023-07-31T10:57:22;21.40;93.60
8172;DHT22;4127;47.908;10.850;2023-07-31T10:59:50;21.50;93.50
8172;DHT22;4127;47.908;10.850;2023-07-31T11:02:26;21.50;93.90
8172;DHT22;4127;47.908;10.850;2023-07-31T11:05:11;21.70;94.10
8172;DHT22;4127;47.908;10.850;2023-07-31T11:07:50;21.90;93.60
8172;DHT22;4127;47.908;10.850;2023-07-31T11:10:22;22.10;93.10
8172;DHT22;4127;47.908;10.850;2023-07-31T11:12:49;22.30;93.60
8172;DHT22;4127;47.908;10.850;2023-07-31T11:15:16;22.80;93.50
8172;DHT22;4127;47.908;10.850;2023-07-31T11:17:43;23.20;94.00
8172;DHT22;4127;47.908;10.850;2023-07-31T11:20:10;23.00;91.50
8172;DHT22;4127;47.908;10.850;2023-07-31T11:22:37;22.90;91.20
8172;DHT22;4127;47.908;10.850;2023-07-31T11:25:04;22.60;91.80
8172;DHT22;4127;47.908;10.850;2023-07-31T11:27:39;23.00;92.20
8172;DHT22;4127;47.908;10.850;2023-07-31T11:30:06;22.90;91.50
8172;DHT22;4127;47.908;10.850;2023-07-31T11:32:35;23.00;90.70
8172;DHT22;4127;47.908;10.850;2023-07-31T11:35:03;22.90;92.40
8172;DHT22;4127;47.908;10.850;2023-07-31T11:37:44;23.40;91.40
8172;DHT22;4127;47.908;10.850;2023-07-31T11:40:11;23.70;91.40
8172;DHT22;4127;47.908;10.850;2023-07-31T11:42:38;23.60;91.50
8172;DHT22;4127;47.908;10.850;2023-07-31T11:45:05;23.20;90.90
8172;DHT22;4127;47.908;10.850;2023-07-31T11:47:33;22.80;92.20
8172;DHT22;4127;47.908;10.850;2023-07-31T11:50:05;22.80;92.00
8172;DHT22;4127;47.908;10.850;2023-07-31T11:52:44;23.10;91.70
8172;DHT22;4127;47.908;10.850;2023-07-31T11:55:12;22.90;91.70
8172;DHT22;4127;47.908;10.850;2023-07-31T11:57:40;23.30;90.60
8172;DHT22;4127;47.908;10.850;2023-07-31T12:00:09;23.30;90.90
8172;DHT22;4127;47.908;10.850;2023-07-31T12:02:38;23.30;90.40
8172;DHT22;4127;47.908;10.850;2023-07-31T12:05:13;23.50;90.50
8172;DHT22;4127;47.908;10.850;2023-07-31T12:07:51;23.90;89.20
8172;DHT22;4127;47.908;10.850;2023-07-31T12:10:29;24.30;90.20
8172;DHT22;4127;47.908;10.850;2023-07-31T12:15:42;23.80;89.10
8172;DHT22;4127;47.908;10.850;2023-07-31T12:18:19;23.70;90.10
8172;DHT22;4127;47.908;10.850;2023-07-31T12:20:48;24.00;89.70
8172;DHT22;4127;47.908;10.850;2023-07-31T12:23:21;24.40;88.60
8172;DHT22;4127;47.908;10.850;2023-07-31T12:26:13;24.20;88.60
8172;DHT22;4127;47.908;10.850;2023-07-31T12:28:45;24.30;87.20
8172;DHT22;4127;47.908;10.850;2023-07-31T12:31:15;24.70;85.70
8172;DHT22;4127;47.908;10.850;2023-07-31T12:33:44;24.90;86.10
8172;DHT22;4127;47.908;10.850;2023-07-31T12:36:16;24.80;84.30
8172;DHT22;4127;47.908;10.850;2023-07-31T12:38:44;24.60;82.10
8172;DHT22;4127;47.908;10.850;2023-07-31T12:41:11;24.40;84.30
8172;DHT22;4127;47.908;10.850;2023-07-31T12:43:40;24.00;85.00
8172;DHT22;4127;47.908;10.850;2023-07-31T12:46:08;23.90;84.50
8172;DHT22;4127;47.908;10.850;2023-07-31T12:48:36;24.10;85.20
8172;DHT22;4127;47.908;10.850;2023-07-31T12:51:03;24.10;85.50
8172;DHT22;4127;47.908;10.850;2023-07-31T12:53:30;24.60;85.60
8172;DHT22;4127;47.908;10.850;2023-07-31T12:55:57;24.90;88.40
8172;DHT22;4127;47.908;10.850;2023-07-31T12:58:24;25.30;82.30
8172;DHT22;4127;47.908;10.850;2023-07-31T13:00:51;25.00;81.30
8172;DHT22;4127;47.908;10.850;2023-07-31T13:03:18;25.00;81.50
8172;DHT22;4127;47.908;10.850;2023-07-31T13:05:45;25.20;82.30
8172;DHT22;4127;47.908;10.850;2023-07-31T13:08:12;24.90;79.80
8172;DHT22;4127;47.908;10.850;2023-07-31T13:10:40;24.50;79.50
8172;DHT22;4127;47.908;10.850;2023-07-31T13:13:08;24.30;80.50
8172;DHT22;4127;47.908;10.850;2023-07-31T13:15:35;24.00;82.10
8172;DHT22;4127;47.908;10.850;2023-07-31T13:18:03;24.30;80.90
8172;DHT22;4127;47.908;10.850;2023-07-31T13:20:30;24.30;78.80
8172;DHT22;4127;47.908;10.850;2023-07-31T13:22:57;24.00;79.20
8172;DHT22;4127;47.908;10.850;2023-07-31T13:25:24;24.30;81.50
8172;DHT22;4127;47.908;10.850;2023-07-31T13:27:51;24.50;82.50
8172;DHT22;4127;47.908;10.850;2023-07-31T13:30:18;24.70;81.30
8172;DHT22;4127;47.908;10.850;2023-07-31T13:32:45;24.60;82.60
8172;DHT22;4127;47.908;10.850;2023-07-31T13:35:12;24.60;83.10
8172;DHT22;4127;47.908;10.850;2023-07-31T13:37:39;24.70;84.10
8172;DHT22;4127;47.908;10.850;2023-07-31T13:40:06;24.80;84.10
8172;DHT22;4127;47.908;10.850;2023-07-31T13:42:33;24.50;83.30
8172;DHT22;4127;47.908;10.850;2023-07-31T13:45:00;24.60;84.50
8172;DHT22;4127;47.908;10.850;2023-07-31T13:47:31;24.70;82.60
8172;DHT22;4127;47.908;10.850;2023-07-31T13:49:58;24.60;79.60
8172;DHT22;4127;47.908;10.850;2023-07-31T13:52:25;24.80;81.30
8172;DHT22;4127;47.908;10.850;2023-07-31T13:54:52;24.90;79.90
8172;DHT22;4127;47.908;10.850;2023-07-31T13:57:19;24.80;76.20
8172;DHT22;4127;47.908;10.850;2023-07-31T13:59:46;24.50;77.50
8172;DHT22;4127;47.908;10.850;2023-07-31T14:02:13;24.40;76.60
8172;DHT22;4127;47.908;10.850;2023-07-31T14:04:41;24.40;78.00
8172;DHT22;4127;47.908;10.850;2023-07-31T14:07:08;24.50;78.10
8172;DHT22;4127;47.908;10.850;2023-07-31T14:09:35;24.60;78.50
8172;DHT22;4127;47.908;10.850;2023-07-31T14:12:02;24.70;76.50
8172;DHT22;4127;47.908;10.850;2023-07-31T14:14:29;24.80;77.70
8172;DHT22;4127;47.908;10.850;2023-07-31T14:16:56;24.40;77.70
8172;DHT22;4127;47.908;10.850;2023-07-31T14:19:23;24.30;79.10
8172;DHT22;4127;47.908;10.850;2023-07-31T14:21:52;24.10;79.60
8172;DHT22;4127;47.908;10.850;2023-07-31T14:24:35;24.30;79.00
8172;DHT22;4127;47.908;10.850;2023-07-31T14:27:02;24.50;80.30
8172;DHT22;4127;47.908;10.850;2023-07-31T14:29:29;24.30;77.10
8172;DHT22;4127;47.908;10.850;2023-07-31T14:31:56;24.00;78.40
8172;DHT22;4127;47.908;10.850;2023-07-31T14:34:23;23.80;78.70
8172;DHT22;4127;47.908;10.850;2023-07-31T14:36:50;23.80;76.40
8172;DHT22;4127;47.908;10.850;2023-07-31T14:39:17;23.90;77.70
8172;DHT22;4127;47.908;10.850;2023-07-31T14:41:44;23.90;79.10
8172;DHT22;4127;47.908;10.850;2023-07-31T14:44:11;24.20;79.20
8172;DHT22;4127;47.908;10.850;2023-07-31T14:46:38;24.30;78.90
8172;DHT22;4127;47.908;10.850;2023-07-31T14:49:07;24.30;79.20
8172;DHT22;4127;47.908;10.850;2023-07-31T14:51:33;24.30;78.60
8172;DHT22;4127;47.908;10.850;2023-07-31T14:54:00;24.20;79.00
8172;DHT22;4127;47.908;10.850;2023-07-31T14:56:28;24.20;79.00
8172;DHT22;4127;47.908;10.850;2023-07-31T14:58:55;23.70;79.70
8172;DHT22;4127;47.908;10.850;2023-07-31T15:01:21;23.60;80.80
8172;DHT22;4127;47.908;10.850;2023-07-31T15:03:48;23.70;81.10
8172;DHT22;4127;47.908;10.850;2023-07-31T15:06:16;23.70;80.70
8172;DHT22;4127;47.908;10.850;2023-07-31T15:08:42;23.80;83.10
8172;DHT22;4127;47.908;10.850;2023-07-31T15:11:10;23.90;82.10
8172;DHT22;4127;47.908;10.850;2023-07-31T15:13:37;23.80;79.80
8172;DHT22;4127;47.908;10.850;2023-07-31T15:16:04;23.60;80.60
8172;DHT22;4127;47.908;10.850;2023-07-31T15:18:31;23.30;79.90
8172;DHT22;4127;47.908;10.850;2023-07-31T15:20:57;23.30;81.80
8172;DHT22;4127;47.908;10.850;2023-07-31T15:23:24;23.30;80.80
8172;DHT22;4127;47.908;10.850;2023-07-31T15:25:52;23.20;80.40
8172;DHT22;4127;47.908;10.850;2023-07-31T15:28:19;23.10;80.50
8172;DHT22;4127;47.908;10.850;2023-07-31T15:30:46;23.00;80.90
8172;DHT22;4127;47.908;10.850;2023-07-31T15:33:15;22.90;83.90
8172;DHT22;4127;47.908;10.850;2023-07-31T15:35:42;22.90;82.90
8172;DHT22;4127;47.908;10.850;2023-07-31T15:38:10;22.70;82.10
8172;DHT22;4127;47.908;10.850;2023-07-31T15:40:38;22.80;83.70
8172;DHT22;4127;47.908;10.850;2023-07-31T15:43:05;22.70;83.20
8172;DHT22;4127;47.908;10.850;2023-07-31T15:45:32;22.70;83.10
8172;DHT22;4127;47.908;10.850;2023-07-31T15:48:00;22.70;83.40
8172;DHT22;4127;47.908;10.850;2023-07-31T15:50:26;22.60;83.40
8172;DHT22;4127;47.908;10.850;2023-07-31T15:52:54;22.50;83.30
8172;DHT22;4127;47.908;10.850;2023-07-31T15:55:21;22.40;83.50
8172;DHT22;4127;47.908;10.850;2023-07-31T15:57:48;22.40;84.30
8172;DHT22;4127;47.908;10.850;2023-07-31T16:00:16;22.40;84.90
8172;DHT22;4127;47.908;10.850;2023-07-31T16:02:43;22.40;84.90
8172;DHT22;4127;47.908;10.850;2023-07-31T16:05:10;22.50;84.60
8172;DHT22;4127;47.908;10.850;2023-07-31T16:07:38;22.50;84.60
8172;DHT22;4127;47.908;10.850;2023-07-31T16:10:05;22.60;85.40
8172;DHT22;4127;47.908;10.850;2023-07-31T16:12:32;22.60;84.90
8172;DHT22;4127;47.908;10.850;2023-07-31T16:14:59;22.60;85.30
8172;DHT22;4127;47.908;10.850;2023-07-31T16:17:26;22.50;84.70
8172;DHT22;4127;47.908;10.850;2023-07-31T16:19:53;22.40;85.90
8172;DHT22;4127;47.908;10.850;2023-07-31T16:22:20;22.50;86.60
8172;DHT22;4127;47.908;10.850;2023-07-31T16:24:47;22.40;85.50
8172;DHT22;4127;47.908;10.850;2023-07-31T16:27:14;22.20;86.10
8172;DHT22;4127;47.908;10.850;2023-07-31T16:29:41;22.20;84.80
8172;DHT22;4127;47.908;10.850;2023-07-31T16:32:08;22.10;85.30
8172;DHT22;4127;47.908;10.850;2023-07-31T16:34:38;22.10;86.10
8172;DHT22;4127;47.908;10.850;2023-07-31T16:37:05;22.10;87.20
8172;DHT22;4127;47.908;10.850;2023-07-31T16:39:32;22.10;86.60
8172;DHT22;4127;47.908;10.850;2023-07-31T16:42:03;22.10;87.30
8172;DHT22;4127;47.908;10.850;2023-07-31T16:44:30;22.10;87.10
8172;DHT22;4127;47.908;10.850;2023-07-31T16:46:57;22.20;87.30
8172;DHT22;4127;47.908;10.850;2023-07-31T16:49:24;22.20;88.10
8172;DHT22;4127;47.908;10.850;2023-07-31T16:51:51;22.20;87.50
8172;DHT22;4127;47.908;10.850;2023-07-31T16:54:18;22.20;87.40
8172;DHT22;4127;47.908;10.850;2023-07-31T16:56:45;22.20;87.90
8172;DHT22;4127;47.908;10.850;2023-07-31T16:59:26;22.30;87.60
8172;DHT22;4127;47.908;10.850;2023-07-31T17:01:54;22.30;88.30
8172;DHT22;4127;47.908;10.850;2023-07-31T17:04:26;22.30;88.20
8172;DHT22;4127;47.908;10.850;2023-07-31T17:06:53;22.20;88.00
8172;DHT22;4127;47.908;10.850;2023-07-31T17:09:19;22.30;89.60
8172;DHT22;4127;47.908;10.850;2023-07-31T17:11:46;22.30;89.80
8172;DHT22;4127;47.908;10.850;2023-07-31T17:14:13;22.30;89.30
8172;DHT22;4127;47.908;10.850;2023-07-31T17:16:42;22.30;88.50
8172;DHT22;4127;47.908;10.850;2023-07-31T17:19:09;22.20;88.30
8172;DHT22;4127;47.908;10.850;2023-07-31T17:21:36;22.10;90.00
8172;DHT22;4127;47.908;10.850;2023-07-31T17:24:04;22.00;89.70
8172;DHT22;4127;47.908;10.850;2023-07-31T17:26:31;22.00;90.10
8172;DHT22;4127;47.908;10.850;2023-07-31T17:28:58;22.10;90.10
8172;DHT22;4127;47.908;10.850;2023-07-31T17:31:27;22.10;89.90
8172;DHT22;4127;47.908;10.850;2023-07-31T17:33:54;22.00;90.00
8172;DHT22;4127;47.908;10.850;2023-07-31T17:36:21;22.00;90.50
8172;DHT22;4127;47.908;10.850;2023-07-31T17:38:48;22.00;90.50
8172;DHT22;4127;47.908;10.850;2023-07-31T17:41:15;21.90;90.40
8172;DHT22;4127;47.908;10.850;2023-07-31T17:43:42;21.80;90.80
8172;DHT22;4127;47.908;10.850;2023-07-31T17:46:08;21.80;91.40
8172;DHT22;4127;47.908;10.850;2023-07-31T17:48:36;21.70;91.60
8172;DHT22;4127;47.908;10.850;2023-07-31T17:51:04;21.60;91.70
8172;DHT22;4127;47.908;10.850;2023-07-31T17:53:31;21.50;91.60
8172;DHT22;4127;47.908;10.850;2023-07-31T17:55:58;21.40;91.60
8172;DHT22;4127;47.908;10.850;2023-07-31T17:58:25;21.40;91.50
8172;DHT22;4127;47.908;10.850;2023-07-31T18:00:52;21.40;92.00
8172;DHT22;4127;47.908;10.850;2023-07-31T18:03:19;21.30;92.00
8172;DHT22;4127;47.908;10.850;2023-07-31T18:05:48;21.20;91.90
8172;DHT22;4127;47.908;10.850;2023-07-31T18:08:15;21.10;91.70
8172;DHT22;4127;47.908;10.850;2023-07-31T18:10:45;21.10;91.20
8172;DHT22;4127;47.908;10.850;2023-07-31T18:13:13;21.10;91.50
8172;DHT22;4127;47.908;10.850;2023-07-31T18:15:47;21.00;91.70
8172;DHT22;4127;47.908;10.850;2023-07-31T18:18:14;20.90;91.90
8172;DHT22;4127;47.908;10.850;2023-07-31T18:20:41;20.80;91.90
8172;DHT22;4127;47.908;10.850;2023-07-31T18:23:08;20.70;92.00
8172;DHT22;4127;47.908;10.850;2023-07-31T18:25:35;20.70;92.50
8172;DHT22;4127;47.908;10.850;2023-07-31T18:28:02;20.50;92.30
8172;DHT22;4127;47.908;10.850;2023-07-31T18:30:29;20.40;92.40
8172;DHT22;4127;47.908;10.850;2023-07-31T18:32:56;20.40;92.50
8172;DHT22;4127;47.908;10.850;2023-07-31T18:35:23;20.50;92.60
8172;DHT22;4127;47.908;10.850;2023-07-31T18:37:50;20.50;92.70
8172;DHT22;4127;47.908;10.850;2023-07-31T18:40:17;20.50;92.60
8172;DHT22;4127;47.908;10.850;2023-07-31T18:42:48;20.50;92.60
8172;DHT22;4127;47.908;10.850;2023-07-31T18:45:15;20.50;92.70
8172;DHT22;4127;47.908;10.850;2023-07-31T18:47:42;20.50;92.70
8172;DHT22;4127;47.908;10.850;2023-07-31T18:50:08;20.40;92.90
8172;DHT22;4127;47.908;10.850;2023-07-31T18:52:36;20.30;92.90
8172;DHT22;4127;47.908;10.850;2023-07-31T18:55:03;20.20;93.00
8172;DHT22;4127;47.908;10.850;2023-07-31T18:57:30;20.20;93.20
8172;DHT22;4127;47.908;10.850;2023-07-31T18:59:57;20.10;93.30
8172;DHT22;4127;47.908;10.850;2023-07-31T19:02:24;20.10;93.30
8172;DHT22;4127;47.908;10.850;2023-07-31T19:04:51;20.00;93.40
8172;DHT22;4127;47.908;10.850;2023-07-31T19:07:18;19.80;93.70
8172;DHT22;4127;47.908;10.850;2023-07-31T19:09:45;19.70;94.10
8172;DHT22;4127;47.908;10.850;2023-07-31T19:12:21;19.60;94.40
8172;DHT22;4127;47.908;10.850;2023-07-31T19:14:48;19.50;94.70
8172;DHT22;4127;47.908;10.850;2023-07-31T19:17:15;19.50;95.00
8172;DHT22;4127;47.908;10.850;2023-07-31T19:19:42;19.50;95.00
8172;DHT22;4127;47.908;10.850;2023-07-31T19:22:09;19.40;95.20
8172;DHT22;4127;47.908;10.850;2023-07-31T19:24:36;19.40;94.70
8172;DHT22;4127;47.908;10.850;2023-07-31T19:27:04;19.50;94.80
8172;DHT22;4127;47.908;10.850;2023-07-31T19:29:31;19.40;95.00
8172;DHT22;4127;47.908;10.850;2023-07-31T19:31:58;19.50;95.00
8172;DHT22;4127;47.908;10.850;2023-07-31T19:34:25;19.40;95.10
8172;DHT22;4127;47.908;10.850;2023-07-31T19:36:52;19.40;95.00
8172;DHT22;4127;47.908;10.850;2023-07-31T19:39:19;19.40;95.20
8172;DHT22;4127;47.908;10.850;2023-07-31T19:41:46;19.40;95.30
8172;DHT22;4127;47.908;10.850;2023-07-31T19:44:13;19.40;95.40
8172;DHT22;4127;47.908;10.850;2023-07-31T19:46:40;19.40;95.30
8172;DHT22;4127;47.908;10.850;2023-07-31T19:49:08;19.40;95.70
8172;DHT22;4127;47.908;10.850;2023-07-31T19:51:35;19.40;96.00
8172;DHT22;4127;47.908;10.850;2023-07-31T19:54:01;19.30;96.00
8172;DHT22;4127;47.908;10.850;2023-07-31T19:56:28;19.30;96.10
8172;DHT22;4127;47.908;10.850;2023-07-31T19:58:56;19.30;96.30
8172;DHT22;4127;47.908;10.850;2023-07-31T20:01:22;19.30;96.20
8172;DHT22;4127;47.908;10.850;2023-07-31T20:03:51;19.20;96.00
8172;DHT22;4127;47.908;10.850;2023-07-31T20:06:19;19.30;96.20
8172;DHT22;4127;47.908;10.850;2023-07-31T20:08:46;19.20;96.30
8172;DHT22;4127;47.908;10.850;2023-07-31T20:11:13;19.20;96.20
8172;DHT22;4127;47.908;10.850;2023-07-31T20:13:40;19.20;96.10
8172;DHT22;4127;47.908;10.850;2023-07-31T20:16:07;19.20;96.30
8172;DHT22;4127;47.908;10.850;2023-07-31T20:18:35;19.20;96.40
8172;DHT22;4127;47.908;10.850;2023-07-31T20:21:01;19.20;96.40
8172;DHT22;4127;47.908;10.850;2023-07-31T20:23:28;19.20;96.30
8172;DHT22;4127;47.908;10.850;2023-07-31T20:26:09;19.10;96.50
8172;DHT22;4127;47.908;10.850;2023-07-31T20:28:49;19.10;96.60
8172;DHT22;4127;47.908;10.850;2023-07-31T20:31:16;19.10;96.90
8172;DHT22;4127;47.908;10.850;2023-07-31T20:33:43;19.00;96.90
8172;DHT22;4127;47.908;10.850;2023-07-31T20:36:10;19.10;96.70
8172;DHT22;4127;47.908;10.850;2023-07-31T20:38:37;19.10;96.60
8172;DHT22;4127;47.908;10.850;2023-07-31T20:41:04;19.00;96.70
8172;DHT22;4127;47.908;10.850;2023-07-31T20:43:31;19.10;96.70
8172;DHT22;4127;47.908;10.850;2023-07-31T20:45:57;19.00;97.10
8172;DHT22;4127;47.908;10.850;2023-07-31T20:48:24;19.00;97.10
8172;DHT22;4127;47.908;10.850;2023-07-31T20:50:51;19.00;97.20
8172;DHT22;4127;47.908;10.850;2023-07-31T20:53:19;19.00;97.10
8172;DHT22;4127;47.908;10.850;2023-07-31T20:55:47;19.00;97.30
8172;DHT22;4127;47.908;10.850;2023-07-31T20:58:13;19.00;97.10
8172;DHT22;4127;47.908;10.850;2023-07-31T21:00:40;19.00;97.30
8172;DHT22;4127;47.908;10.850;2023-07-31T21:03:10;19.00;97.40
8172;DHT22;4127;47.908;10.850;2023-07-31T21:05:38;19.00;97.50
8172;DHT22;4127;47.908;10.850;2023-07-31T21:08:04;19.00;97.60
8172;DHT22;4127;47.908;10.850;2023-07-31T21:10:31;19.00;97.80
8172;DHT22;4127;47.908;10.850;2023-07-31T21:13:00;19.00;98.00
8172;DHT22;4127;47.908;10.850;2023-07-31T21:15:27;18.90;98.10
8172;DHT22;4127;47.908;10.850;2023-07-31T21:17:53;18.90;98.50
8172;DHT22;4127;47.908;10.850;2023-07-31T21:20:20;18.90;98.10
8172;DHT22;4127;47.908;10.850;2023-07-31T21:22:49;18.90;98.30
8172;DHT22;4127;47.908;10.850;2023-07-31T21:25:15;18.80;98.10
8172;DHT22;4127;47.908;10.850;2023-07-31T21:27:54;18.90;98.40
8172;DHT22;4127;47.908;10.850;2023-07-31T21:30:21;18.80;98.40
8172;DHT22;4127;47.908;10.850;2023-07-31T21:32:48;18.80;98.50
8172;DHT22;4127;47.908;10.850;2023-07-31T21:35:15;18.80;98.80
8172;DHT22;4127;47.908;10.850;2023-07-31T21:37:42;18.80;98.90
8172;DHT22;4127;47.908;10.850;2023-07-31T21:40:09;18.80;99.20
8172;DHT22;4127;47.908;10.850;2023-07-31T21:42:36;18.80;99.70
8172;DHT22;4127;47.908;10.850;2023-07-31T21:45:06;18.80;99.80
8172;DHT22;4127;47.908;10.850;2023-07-31T21:47:33;18.70;99.90
8172;DHT22;4127;47.908;10.850;2023-07-31T21:50:00;18.70;99.90
8172;DHT22;4127;47.908;10.850;2023-07-31T21:52:27;18.60;99.90
8172;DHT22;4127;47.908;10.850;2023-07-31T21:54:53;18.60;99.90
8172;DHT22;4127;47.908;10.850;2023-07-31T21:57:20;18.70;99.90
8172;DHT22;4127;47.908;10.850;2023-07-31T21:59:47;18.70;99.90
8172;DHT22;4127;47.908;10.850;2023-07-31T22:02:14;18.70;99.90
8172;DHT22;4127;47.908;10.850;2023-07-31T22:04:41;18.60;99.90
8172;DHT22;4127;47.908;10.850;2023-07-31T22:07:11;18.70;99.90
8172;DHT22;4127;47.908;10.850;2023-07-31T22:09:38;18.70;99.90
8172;DHT22;4127;47.908;10.850;2023-07-31T22:12:05;18.60;99.90
8172;DHT22;4127;47.908;10.850;2023-07-31T22:14:32;18.60;99.90
8172;DHT22;4127;47.908;10.850;2023-07-31T22:16:59;18.70;99.90
8172;DHT22;4127;47.908;10.850;2023-07-31T22:19:26;18.60;99.90
8172;DHT22;4127;47.908;10.850;2023-07-31T22:21:54;18.60;99.90
8172;DHT22;4127;47.908;10.850;2023-07-31T22:24:20;18.60;99.90
8172;DHT22;4127;47.908;10.850;2023-07-31T22:26:47;18.50;99.90
8172;DHT22;4127;47.908;10.850;2023-07-31T22:29:14;18.60;99.90
8172;DHT22;4127;47.908;10.850;2023-07-31T22:31:41;18.60;99.90
8172;DHT22;4127;47.908;10.850;2023-07-31T22:34:08;18.50;99.90
8172;DHT22;4127;47.908;10.850;2023-07-31T22:36:34;18.50;99.90
8172;DHT22;4127;47.908;10.850;2023-07-31T22:39:03;18.50;99.90
8172;DHT22;4127;47.908;10.850;2023-07-31T22:41:31;18.50;99.90
8172;DHT22;4127;47.908;10.850;2023-07-31T22:43:58;18.50;99.90
8172;DHT22;4127;47.908;10.850;2023-07-31T22:46:26;18.50;99.90
8172;DHT22;4127;47.908;10.850;2023-07-31T22:48:53;18.50;99.90
8172;DHT22;4127;47.908;10.850;2023-07-31T22:51:20;18.50;99.90
8172;DHT22;4127;47.908;10.850;2023-07-31T22:54:08;18.50;99.90
8172;DHT22;4127;47.908;10.850;2023-07-31T22:56:35;18.50;99.90
8172;DHT22;4127;47.908;10.850;2023-07-31T22:59:02;18.50;99.90
8172;DHT22;4127;47.908;10.850;2023-07-31T23:01:51;18.50;99.90
8172;DHT22;4127;47.908;10.850;2023-07-31T23:04:32;18.50;99.90
8172;DHT22;4127;47.908;10.850;2023-07-31T23:06:59;18.50;99.90
8172;DHT22;4127;47.908;10.850;2023-07-31T23:09:26;18.50;99.90
8172;DHT22;4127;47.908;10.850;2023-07-31T23:11:53;18.50;99.90
8172;DHT22;4127;47.908;10.850;2023-07-31T23:14:19;18.50;99.90
8172;DHT22;4127;47.908;10.850;2023-07-31T23:16:46;18.50;99.90
8172;DHT22;4127;47.908;10.850;2023-07-31T23:19:13;18.60;99.90
8172;DHT22;4127;47.908;10.850;2023-07-31T23:21:48;18.60;99.90
8172;DHT22;4127;47.908;10.850;2023-07-31T23:24:48;18.60;99.90
8172;DHT22;4127;47.908;10.850;2023-07-31T23:27:15;18.60;99.90
8172;DHT22;4127;47.908;10.850;2023-07-31T23:29:42;18.60;99.90
8172;DHT22;4127;47.908;10.850;2023-07-31T23:32:09;18.60;99.90
8172;DHT22;4127;47.908;10.850;2023-07-31T23:34:37;18.60;99.90
8172;DHT22;4127;47.908;10.850;2023-07-31T23:37:04;18.60;99.90
8172;DHT22;4127;47.908;10.850;2023-07-31T23:39:31;18.60;99.90
8172;DHT22;4127;47.908;10.850;2023-07-31T23:41:58;18.60;99.90
8172;DHT22;4127;47.908;10.850;2023-07-31T23:44:25;18.50;99.90
8172;DHT22;4127;47.908;10.850;2023-07-31T23:47:30;18.60;99.90
8172;DHT22;4127;47.908;10.850;2023-07-31T23:49:57;18.60;99.90
8172;DHT22;4127;47.908;10.850;2023-07-31T23:52:36;18.50;99.90
8172;DHT22;4127;47.908;10.850;2023-07-31T23:55:04;18.50;99.90
8172;DHT22;4127;47.908;10.850;2023-07-31T23:57:32;18.50;99.90
